Adams, Oregon
Current Conditions -  °F | °C
As of 12:06 PM on Thursday 23 Oct 2014 (Local Time) from KPDT Reporting Station
Haze Haze  
Wind Chill: 54°   Ceiling: 7500
Heat Index: 54°   Visibility: 6mi
Dew Point: 52°   Wind: 16mph
Humidity: 93%   Direction: 310°NW
Pressure: 29.84"   Gusts: NA
Location:  45.77°N, 118.56°W
Report Text: KPDT 231906Z 31014KT 6SM BR SCT005 OVC075 12/11 A2984 RMK AO2 T01220111
Loading
Personal Weather Stations






























Interactive Weather Map
Tropical Storm Tracking
New forecast layout! Learn more

10-Day Weather Forecast

Advertisements
Track Severe Weather on mobile